Time;durP1;ratioP1;P1;durP2;ratioP2;P2;SDS_P1;SDS_P2;PMS_P1;PMS_P2;Temp;Humidity;BMP_temperature;BMP_pressure;BME280_temperature;BME280_humidity;BME280_pressure;Samples;Min_cycle;Max_cycle;Signal;HPM_P1;HPM_P2
2022/04/03 00:00:32;;;;;;;6.35;3.67;;;0.40;99.90;;;;;;5014076;28;20137;-62
2022/04/03 00:02:59;;;;;;;5.22;3.47;;;0.40;99.90;;;;;;5014287;28;20037;-63
2022/04/03 00:05:25;;;;;;;6.45;3.80;;;0.40;99.90;;;;;;5014500;28;20065;-62
2022/04/03 00:07:50;;;;;;;8.48;3.58;;;0.40;99.90;;;;;;5014169;28;20408;-62
2022/04/03 00:10:16;;;;;;;8.05;3.80;;;0.40;99.90;;;;;;5014054;28;20092;-62
2022/04/03 00:12:41;;;;;;;5.20;3.55;;;0.30;99.90;;;;;;5014327;28;20340;-62
2022/04/03 00:15:08;;;;;;;5.57;3.13;;;0.30;99.90;;;;;;5013922;28;20383;-62
2022/04/03 00:17:34;;;;;;;8.05;3.65;;;0.30;99.90;;;;;;5013489;28;20463;-64
2022/04/03 00:19:59;;;;;;;6.25;3.38;;;0.30;99.90;;;;;;5013914;28;20099;-62
2022/04/03 00:22:25;;;;;;;8.82;3.60;;;0.30;99.90;;;;;;5014358;28;20088;-63
2022/04/03 00:24:51;;;;;;;5.80;3.75;;;0.30;99.90;;;;;;4997082;28;20042;-63
2022/04/03 00:27:17;;;;;;;7.97;3.55;;;0.30;99.90;;;;;;5013940;28;20038;-62
2022/04/03 00:29:43;;;;;;;7.32;3.40;;;0.30;99.90;;;;;;5013937;28;20034;-62
2022/04/03 00:32:09;;;;;;;5.93;3.53;;;0.20;99.90;;;;;;5014051;28;20510;-62
2022/04/03 00:34:35;;;;;;;7.15;3.55;;;0.30;99.90;;;;;;5014125;28;20038;-63
2022/04/03 00:37:00;;;;;;;6.93;3.63;;;0.30;99.90;;;;;;4996629;28;20050;-62
2022/04/03 00:39:26;;;;;;;6.97;3.53;;;0.30;99.90;;;;;;5012443;28;20069;-62
2022/04/03 00:41:53;;;;;;;8.52;3.72;;;0.20;99.90;;;;;;4996603;28;20042;-64
2022/04/03 00:44:18;;;;;;;6.22;3.38;;;0.20;99.90;;;;;;5014172;28;20046;-63
2022/04/03 00:46:47;;;;;;;5.90;3.05;;;0.20;99.90;;;;;;4997445;28;20050;-63
2022/04/03 00:49:13;;;;;;;6.70;3.25;;;0.20;99.90;;;;;;5017246;28;20034;-63
2022/04/03 00:51:38;;;;;;;7.25;3.55;;;0.20;99.90;;;;;;5017799;28;20133;-62
2022/04/03 00:54:05;;;;;;;10.75;3.45;;;0.20;99.90;;;;;;5017902;28;20112;-64
2022/04/03 00:56:32;;;;;;;5.45;3.25;;;0.30;99.90;;;;;;5017616;28;20374;-62
2022/04/03 00:58:58;;;;;;;6.60;2.95;;;0.30;99.90;;;;;;5017542;28;20074;-63
2022/04/03 01:01:23;;;;;;;6.22;3.47;;;0.30;99.90;;;;;;5016915;28;20168;-65
2022/04/03 01:03:49;;;;;;;5.07;2.88;;;0.40;99.90;;;;;;5017785;28;20173;-62
2022/04/03 01:06:15;;;;;;;5.25;2.80;;;0.40;99.90;;;;;;5017553;28;20065;-63
2022/04/03 01:08:42;;;;;;;6.07;3.15;;;0.50;99.90;;;;;;5017300;28;20044;-62
2022/04/03 01:11:14;;;;;;;5.70;3.20;;;0.60;99.90;;;;;;5016820;28;20077;-62
2022/04/03 01:13:48;;;;;;;6.80;3.55;;;0.60;99.90;;;;;;5017030;28;20045;-62
2022/04/03 01:16:14;;;;;;;6.43;3.00;;;0.70;99.90;;;;;;5016968;28;20081;-62
2022/04/03 01:18:40;;;;;;;6.57;3.53;;;0.70;99.90;;;;;;5016938;28;20128;-62
2022/04/03 01:21:05;;;;;;;6.50;3.10;;;0.80;99.90;;;;;;5017029;28;20133;-62
2022/04/03 01:23:31;;;;;;;5.35;3.45;;;0.80;99.90;;;;;;5017230;28;20057;-62
2022/04/03 01:25:57;;;;;;;5.65;3.45;;;0.80;99.90;;;;;;5017271;28;20042;-62
2022/04/03 01:28:25;;;;;;;5.00;3.17;;;0.90;99.90;;;;;;5016898;28;20057;-62
2022/04/03 01:30:51;;;;;;;6.90;3.60;;;0.90;99.90;;;;;;5016516;28;20394;-62
2022/04/03 01:33:17;;;;;;;5.68;3.08;;;0.90;99.90;;;;;;5016827;28;20044;-63
2022/04/03 01:35:43;;;;;;;6.30;3.50;;;1.00;99.90;;;;;;5016932;28;20038;-62
2022/04/03 01:38:09;;;;;;;7.65;4.10;;;1.00;99.90;;;;;;4999268;28;20049;-62
2022/04/03 01:40:35;;;;;;;5.80;3.35;;;1.10;99.90;;;;;;5016078;28;20049;-63
2022/04/03 01:43:08;;;;;;;7.85;3.60;;;1.10;99.90;;;;;;5016879;28;20045;-62
2022/04/03 01:45:36;;;;;;;7.82;3.85;;;1.10;99.90;;;;;;5016754;28;20046;-62
2022/04/03 01:48:02;;;;;;;7.03;3.78;;;1.20;99.90;;;;;;5016223;28;20113;-62
2022/04/03 01:50:28;;;;;;;5.53;3.25;;;1.20;99.90;;;;;;5016236;28;20044;-62
2022/04/03 01:52:53;;;;;;;5.93;3.53;;;1.20;99.90;;;;;;5016787;28;20029;-65
2022/04/03 01:55:19;;;;;;;5.53;3.33;;;1.30;99.90;;;;;;5016625;28;20598;-62
2022/04/03 01:57:45;;;;;;;9.30;3.70;;;1.30;99.90;;;;;;5015780;28;20470;-64
2022/04/03 02:00:11;;;;;;;5.95;3.50;;;1.30;99.90;;;;;;5016242;28;20485;-63
2022/04/03 02:02:38;;;;;;;6.45;3.40;;;1.30;99.90;;;;;;4999096;28;20096;-62
2022/04/03 02:05:05;;;;;;;7.28;3.50;;;1.40;99.90;;;;;;5016315;28;20475;-63
2022/04/03 02:07:32;;;;;;;7.00;3.28;;;1.30;99.90;;;;;;5016245;28;20189;-62
2022/04/03 02:10:02;;;;;;;5.82;3.25;;;1.40;99.90;;;;;;5016048;28;20052;-61
2022/04/03 02:12:28;;;;;;;5.97;3.17;;;1.40;99.90;;;;;;5016343;28;20363;-62
2022/04/03 02:14:54;;;;;;;4.38;3.10;;;1.50;99.90;;;;;;5015986;28;20050;-63
2022/04/03 02:17:19;;;;;;;5.40;3.40;;;1.50;99.90;;;;;;5015629;28;20042;-62
2022/04/03 02:19:45;;;;;;;5.32;3.40;;;1.50;99.90;;;;;;5015722;28;20096;-63
2022/04/03 02:22:11;;;;;;;5.00;2.60;;;1.50;99.90;;;;;;5016136;28;20048;-62
2022/04/03 02:24:36;;;;;;;6.72;2.90;;;1.50;99.90;;;;;;5015941;28;20107;-63
2022/04/03 02:27:02;;;;;;;4.72;2.88;;;1.50;99.90;;;;;;5015922;28;20044;-62
2022/04/03 02:29:28;;;;;;;5.90;3.03;;;1.50;99.90;;;;;;4998221;28;20505;-63
2022/04/03 02:31:53;;;;;;;5.88;2.92;;;1.60;99.90;;;;;;5016030;28;20371;-64
2022/04/03 02:34:19;;;;;;;5.45;3.15;;;1.50;99.90;;;;;;5015827;28;20041;-62
2022/04/03 02:36:45;;;;;;;5.72;2.90;;;1.60;99.90;;;;;;4998305;28;20049;-62
2022/04/03 02:39:12;;;;;;;5.50;3.10;;;1.60;99.90;;;;;;5014985;28;20038;-62
2022/04/03 02:41:39;;;;;;;5.85;3.03;;;1.60;99.90;;;;;;5015536;28;20418;-62
2022/04/03 02:44:05;;;;;;;6.22;3.08;;;1.70;99.90;;;;;;4998312;28;20444;-62
2022/04/03 02:46:31;;;;;;;5.38;2.50;;;1.70;99.90;;;;;;5015500;28;20045;-62
2022/04/03 02:48:56;;;;;;;4.72;2.80;;;1.70;99.90;;;;;;5015256;28;20044;-62
2022/04/03 02:51:22;;;;;;;5.18;2.70;;;1.70;99.90;;;;;;5015561;28;20482;-61
2022/04/03 02:53:48;;;;;;;5.97;3.08;;;1.70;99.90;;;;;;5015096;28;20073;-62
2022/04/03 02:56:14;;;;;;;5.95;2.40;;;1.80;99.90;;;;;;5015405;28;20038;-62
2022/04/03 02:58:40;;;;;;;5.82;2.45;;;1.80;99.90;;;;;;5014984;28;20042;-62
2022/04/03 03:01:06;;;;;;;6.70;2.53;;;1.80;99.90;;;;;;5014914;28;20046;-64
2022/04/03 03:03:32;;;;;;;4.75;2.47;;;1.90;99.90;;;;;;5014878;28;20052;-62
2022/04/03 03:05:58;;;;;;;4.88;2.90;;;1.90;99.90;;;;;;5015354;28;20041;-63
2022/04/03 03:08:24;;;;;;;5.90;2.90;;;1.90;99.90;;;;;;5015228;28;20034;-64
2022/04/03 03:10:49;;;;;;;5.43;2.83;;;1.90;99.90;;;;;;5014040;28;20084;-63
2022/04/03 03:13:15;;;;;;;4.60;2.72;;;1.90;99.90;;;;;;5015326;28;20053;-63
2022/04/03 03:15:41;;;;;;;4.40;2.47;;;1.90;99.90;;;;;;5014896;28;20054;-63
2022/04/03 03:18:07;;;;;;;6.28;2.60;;;1.90;99.90;;;;;;4997172;28;20050;-62
2022/04/03 03:20:33;;;;;;;5.32;2.72;;;2.00;99.90;;;;;;5014709;28;20459;-64
2022/04/03 03:23:00;;;;;;;4.05;2.00;;;2.00;99.90;;;;;;5015073;28;20107;-62
2022/04/03 03:25:26;;;;;;;4.82;2.50;;;2.00;99.90;;;;;;5015081;28;20046;-64
2022/04/03 03:27:51;;;;;;;5.15;2.53;;;2.00;99.90;;;;;;5014230;28;20038;-63
2022/04/03 03:30:17;;;;;;;3.83;2.40;;;2.00;99.90;;;;;;4997385;28;20044;-63
2022/04/03 03:32:43;;;;;;;5.18;2.40;;;2.00;99.90;;;;;;5014780;28;20398;-63
2022/04/03 03:35:10;;;;;;;5.68;2.42;;;2.00;99.90;;;;;;5014511;28;20542;-63
2022/04/03 03:37:37;;;;;;;7.95;2.60;;;2.00;99.90;;;;;;4996975;28;20053;-64
2022/04/03 03:40:03;;;;;;;9.23;3.20;;;2.00;99.90;;;;;;5014386;28;20041;-62
2022/04/03 03:42:29;;;;;;;9.57;4.05;;;1.90;99.90;;;;;;5014442;28;20038;-62
2022/04/03 03:44:55;;;;;;;5.93;3.30;;;1.90;99.90;;;;;;5014834;28;20063;-63
2022/04/03 03:47:21;;;;;;;6.63;2.85;;;1.90;99.90;;;;;;5014136;28;20123;-62
2022/04/03 03:49:46;;;;;;;7.55;2.92;;;1.90;99.90;;;;;;5014294;28;20487;-64
2022/04/03 03:52:12;;;;;;;7.05;3.03;;;1.90;99.90;;;;;;5014532;28;20078;-64
2022/04/03 03:54:38;;;;;;;11.18;3.63;;;1.90;99.90;;;;;;5014442;28;20037;-63
2022/04/03 03:57:04;;;;;;;9.68;3.63;;;1.90;99.90;;;;;;5014328;28;20382;-63
2022/04/03 03:59:30;;;;;;;9.85;3.80;;;1.90;99.90;;;;;;5013778;28;20042;-62
2022/04/03 04:01:56;;;;;;;14.60;4.25;;;2.00;99.90;;;;;;5014357;28;20463;-63
2022/04/03 04:04:21;;;;;;;16.15;4.40;;;2.00;99.90;;;;;;5014094;28;20359;-62
2022/04/03 04:06:48;;;;;;;11.23;3.58;;;2.00;99.90;;;;;;5014162;28;20261;-64
2022/04/03 04:09:14;;;;;;;9.32;3.65;;;2.00;99.90;;;;;;4996311;28;20058;-63
2022/04/03 04:11:39;;;;;;;7.38;2.88;;;2.00;99.90;;;;;;4997034;28;20045;-62
2022/04/03 04:14:05;;;;;;;7.15;3.45;;;2.00;99.90;;;;;;5013604;28;20372;-63
2022/04/03 04:16:31;;;;;;;10.02;3.72;;;2.00;99.90;;;;;;5013672;28;20046;-62
2022/04/03 04:18:57;;;;;;;9.80;3.25;;;1.90;99.90;;;;;;5013351;28;20041;-64
2022/04/03 04:21:23;;;;;;;9.13;3.10;;;1.90;99.90;;;;;;5014955;28;20061;-62
2022/04/03 04:23:48;;;;;;;6.53;2.70;;;1.90;99.90;;;;;;5001107;28;20096;-63
2022/04/03 04:26:15;;;;;;;5.97;2.20;;;1.90;99.90;;;;;;5018296;28;20359;-62
2022/04/03 04:28:41;;;;;;;10.02;2.95;;;1.90;99.90;;;;;;5017964;28;20076;-62
2022/04/03 04:31:07;;;;;;;6.00;2.28;;;1.80;99.90;;;;;;5017681;28;20037;-64
2022/04/03 04:33:33;;;;;;;4.40;2.20;;;1.80;99.90;;;;;;5017935;28;20077;-64
2022/04/03 04:35:59;;;;;;;4.43;2.50;;;1.80;99.90;;;;;;5018165;28;20038;-62
2022/04/03 04:38:26;;;;;;;5.50;2.50;;;1.70;99.90;;;;;;5017668;28;20065;-63
2022/04/03 04:40:51;;;;;;;7.38;2.28;;;1.60;99.90;;;;;;5017713;28;20041;-63
2022/04/03 04:43:17;;;;;;;3.97;2.08;;;1.60;99.90;;;;;;5000399;28;20052;-63
2022/04/03 04:45:42;;;;;;;3.58;2.05;;;1.60;99.90;;;;;;5017905;28;20096;-63
2022/04/03 04:48:08;;;;;;;3.70;2.05;;;1.60;99.90;;;;;;5017291;28;20049;-65
2022/04/03 04:50:34;;;;;;;6.50;2.25;;;1.50;99.90;;;;;;5017374;28;20038;-63
2022/04/03 04:52:59;;;;;;;3.35;2.13;;;1.50;99.90;;;;;;5017872;28;20042;-63
2022/04/03 04:55:25;;;;;;;3.90;1.95;;;1.40;99.90;;;;;;5017753;28;20078;-63
2022/04/03 04:57:54;;;;;;;6.28;2.13;;;1.40;99.90;;;;;;5017387;28;20182;-63
2022/04/03 05:00:21;;;;;;;6.22;2.38;;;1.40;99.90;;;;;;5017308;28;20092;-63
2022/04/03 05:02:47;;;;;;;4.72;2.15;;;1.30;99.90;;;;;;5017293;28;20034;-63
2022/04/03 05:05:18;;;;;;;5.40;2.20;;;1.30;99.90;;;;;;5017755;28;20069;-63
2022/04/03 05:07:45;;;;;;;4.13;1.92;;;1.30;99.90;;;;;;5017123;28;20354;-63
2022/04/03 05:10:15;;;;;;;4.95;2.08;;;1.30;99.90;;;;;;5017229;28;20048;-63
2022/04/03 05:12:42;;;;;;;4.70;2.20;;;1.30;99.90;;;;;;5017352;28;20049;-63
2022/04/03 05:15:10;;;;;;;4.88;1.88;;;1.30;99.90;;;;;;4999702;28;20054;-64
2022/04/03 05:17:36;;;;;;;4.70;2.00;;;1.30;99.90;;;;;;5016725;28;20053;-62
2022/04/03 05:20:03;;;;;;;4.10;2.20;;;1.30;99.90;;;;;;5016964;28;20367;-62
2022/04/03 05:22:29;;;;;;;5.18;2.08;;;1.30;99.90;;;;;;5017198;28;20057;-63
2022/04/03 05:24:55;;;;;;;4.43;2.17;;;1.30;99.90;;;;;;5016323;28;20033;-63
2022/04/03 05:27:21;;;;;;;6.45;2.30;;;1.30;99.90;;;;;;5016765;28;20125;-63
2022/04/03 05:29:47;;;;;;;6.82;2.20;;;1.30;99.90;;;;;;5016682;28;20239;-63
2022/04/03 05:32:13;;;;;;;5.38;2.10;;;1.30;99.90;;;;;;5016340;28;20133;-63
2022/04/03 05:34:39;;;;;;;3.22;1.90;;;1.30;99.90;;;;;;5016972;28;20049;-63
2022/04/03 05:37:06;;;;;;;3.67;2.00;;;1.30;99.90;;;;;;5016947;28;20050;-63
2022/04/03 05:39:31;;;;;;;8.75;2.13;;;1.40;99.90;;;;;;4998478;28;20128;-63
2022/04/03 05:41:57;;;;;;;3.22;1.90;;;1.40;99.90;;;;;;4999858;28;20220;-63
2022/04/03 05:44:24;;;;;;;4.07;2.00;;;1.50;99.90;;;;;;5017006;28;20061;-63
2022/04/03 05:46:50;;;;;;;3.55;1.88;;;1.60;99.90;;;;;;5016367;28;20127;-64
2022/04/03 05:49:16;;;;;;;6.88;2.00;;;1.60;99.90;;;;;;5016122;28;20091;-62
2022/04/03 05:51:42;;;;;;;4.45;2.00;;;1.90;99.90;;;;;;5016753;28;20069;-63
2022/04/03 05:54:08;;;;;;;4.25;2.10;;;2.40;99.90;;;;;;5016556;28;20471;-63
2022/04/03 05:56:34;;;;;;;3.22;1.80;;;3.00;99.90;;;;;;5016585;28;20045;-64
2022/04/03 05:59:00;;;;;;;5.00;1.98;;;3.50;99.90;;;;;;5015670;28;20456;-63
2022/04/03 06:01:26;;;;;;;4.63;1.88;;;3.90;99.90;;;;;;5016377;28;20128;-63
2022/04/03 06:03:52;;;;;;;4.97;2.08;;;4.30;99.90;;;;;;5016129;28;20149;-64
2022/04/03 06:06:17;;;;;;;4.63;1.98;;;4.50;99.90;;;;;;5016377;28;20046;-63
2022/04/03 06:08:44;;;;;;;4.40;1.75;;;4.90;99.90;;;;;;5015443;28;20052;-63
2022/04/03 06:11:10;;;;;;;4.90;1.90;;;5.20;99.90;;;;;;5015650;28;20057;-64
2022/04/03 06:13:36;;;;;;;5.65;2.40;;;5.70;99.90;;;;;;5015438;28;20038;-63
2022/04/03 06:16:02;;;;;;;3.45;1.80;;;6.00;99.90;;;;;;4996827;28;20038;-63
2022/04/03 06:18:28;;;;;;;3.55;1.90;;;6.30;99.90;;;;;;4997051;28;20112;-63
2022/04/03 06:20:54;;;;;;;5.80;1.90;;;6.50;99.90;;;;;;4994986;28;20069;-64
2022/04/03 06:23:22;;;;;;;4.82;2.20;;;6.50;99.90;;;;;;4994124;28;20042;-63
2022/04/03 06:25:52;;;;;;;3.25;2.15;;;6.50;99.90;;;;;;4995792;28;20141;-63
2022/04/03 06:28:18;;;;;;;4.43;2.40;;;6.80;99.90;;;;;;5003366;28;20426;-65
2022/04/03 06:30:44;;;;;;;4.00;2.05;;;6.80;99.90;;;;;;5015131;28;20041;-64
2022/04/03 06:33:10;;;;;;;6.80;2.30;;;6.80;99.90;;;;;;5015534;28;20084;-65
2022/04/03 06:35:36;;;;;;;3.80;1.92;;;6.90;99.90;;;;;;5015473;28;20039;-66
2022/04/03 06:38:02;;;;;;;6.00;2.53;;;6.90;99.90;;;;;;5015121;28;20344;-65
2022/04/03 06:40:27;;;;;;;6.50;2.30;;;6.90;99.90;;;;;;5015003;28;20041;-64
2022/04/03 06:42:53;;;;;;;5.50;2.20;;;7.20;99.90;;;;;;5015043;28;20076;-66
2022/04/03 06:45:19;;;;;;;8.32;2.67;;;7.20;99.90;;;;;;5014066;28;20424;-64
2022/04/03 06:47:45;;;;;;;5.40;2.70;;;7.40;99.90;;;;;;5014651;28;20504;-64
2022/04/03 06:50:12;;;;;;;7.18;3.08;;;7.80;99.90;;;;;;5014573;28;20041;-64
2022/04/03 06:52:38;;;;;;;5.43;2.75;;;7.90;99.90;;;;;;5014972;28;20525;-64
2022/04/03 06:55:05;;;;;;;11.32;3.15;;;8.10;99.90;;;;;;5015010;28;20034;-65
2022/04/03 06:57:31;;;;;;;8.10;2.97;;;8.40;99.90;;;;;;5014616;28;20105;-65
2022/04/03 06:59:57;;;;;;;5.95;2.55;;;8.40;99.90;;;;;;5014953;28;20034;-63
2022/04/03 07:02:23;;;;;;;9.23;2.80;;;8.00;99.90;;;;;;5015319;28;20056;-65
2022/04/03 07:04:48;;;;;;;6.68;2.30;;;7.50;99.90;;;;;;4997977;28;20038;-63
2022/04/03 07:07:25;;;;;;;5.85;1.98;;;6.80;99.90;;;;;;5014931;28;20045;-63
2022/04/03 07:09:52;;;;;;;3.45;1.50;;;6.30;99.90;;;;;;5014935;28;20042;-64
2022/04/03 07:12:19;;;;;;;5.50;2.40;;;6.00;99.90;;;;;;5014794;28;20069;-64
2022/04/03 07:14:44;;;;;;;5.35;1.75;;;5.50;99.90;;;;;;5014736;28;20045;-65
2022/04/03 07:17:10;;;;;;;3.83;1.65;;;5.40;99.90;;;;;;5014914;28;20518;-63
2022/04/03 07:19:36;;;;;;;3.55;1.73;;;5.40;99.90;;;;;;4996817;28;20125;-63
2022/04/03 07:22:01;;;;;;;3.70;1.70;;;5.40;99.90;;;;;;5015122;28;20360;-63
2022/04/03 07:24:27;;;;;;;2.40;1.50;;;5.30;99.90;;;;;;4997601;28;20125;-63
2022/04/03 07:26:53;;;;;;;3.13;1.50;;;5.30;99.90;;;;;;5014898;28;20176;-64
2022/04/03 07:29:20;;;;;;;4.85;1.58;;;5.30;99.90;;;;;;5014211;28;20045;-63
2022/04/03 07:31:46;;;;;;;3.30;1.60;;;5.20;99.90;;;;;;5014781;28;20057;-62
2022/04/03 07:34:12;;;;;;;4.22;1.80;;;5.20;99.90;;;;;;5014894;28;20427;-64
2022/04/03 07:36:38;;;;;;;3.10;1.60;;;5.10;99.90;;;;;;5014795;28;20181;-64
2022/04/03 07:39:04;;;;;;;4.40;1.73;;;5.30;99.90;;;;;;4996913;28;20096;-64
2022/04/03 07:41:30;;;;;;;3.45;1.55;;;5.30;99.90;;;;;;4997148;28;20046;-63
2022/04/03 07:43:55;;;;;;;3.45;1.58;;;5.30;99.90;;;;;;5014821;28;20034;-66
2022/04/03 07:46:21;;;;;;;3.85;1.55;;;5.40;99.90;;;;;;5014357;28;20049;-65
2022/04/03 07:48:46;;;;;;;3.75;1.70;;;5.40;99.90;;;;;;5013773;28;20352;-66
2022/04/03 07:51:12;;;;;;;3.67;1.92;;;5.40;99.90;;;;;;5014553;28;20085;-66
2022/04/03 07:53:38;;;;;;;3.50;1.67;;;5.40;99.90;;;;;;5014553;28;20041;-66
2022/04/03 07:56:05;;;;;;;4.43;1.90;;;5.50;99.90;;;;;;5014312;28;20033;-66
2022/04/03 07:58:40;;;;;;;3.38;1.52;;;5.70;99.90;;;;;;5013797;28;20041;-65
2022/04/03 08:01:05;;;;;;;7.13;1.70;;;5.90;99.90;;;;;;5014309;28;20434;-66
2022/04/03 08:03:31;;;;;;;4.25;1.48;;;6.00;99.90;;;;;;5014370;28;20077;-66
2022/04/03 08:05:57;;;;;;;4.15;1.38;;;6.00;99.90;;;;;;4997168;28;20053;-66
2022/04/03 08:08:22;;;;;;;2.28;1.38;;;6.10;99.90;;;;;;5013738;28;20084;-65
2022/04/03 08:10:48;;;;;;;5.93;1.40;;;6.20;99.90;;;;;;4997259;28;20042;-65
2022/04/03 08:13:14;;;;;;;3.40;1.15;;;6.40;99.90;;;;;;5014284;28;20395;-66
2022/04/03 08:15:41;;;;;;;3.80;1.40;;;6.40;99.90;;;;;;5013782;28;20104;-65
2022/04/03 08:18:07;;;;;;;3.35;1.30;;;6.40;99.90;;;;;;5013916;28;20042;-66
2022/04/03 08:20:32;;;;;;;3.00;1.20;;;6.50;99.90;;;;;;4996414;28;20060;-66
2022/04/03 08:23:01;;;;;;;4.10;1.10;;;6.60;99.90;;;;;;4996663;28;20046;-65
2022/04/03 08:25:27;;;;;;;4.60;1.10;;;6.60;99.90;;;;;;5014168;28;20049;-66
2022/04/03 08:27:54;;;;;;;3.08;1.00;;;6.60;99.90;;;;;;5013872;28;20431;-65
2022/04/03 08:30:26;;;;;;;1.90;1.05;;;6.60;99.90;;;;;;4996314;28;20037;-66
2022/04/03 08:32:53;;;;;;;2.85;1.52;;;6.80;99.90;;;;;;5014405;28;20069;-66
2022/04/03 08:35:20;;;;;;;3.42;0.95;;;6.90;99.90;;;;;;5014017;28;20042;-66
2022/04/03 08:37:47;;;;;;;2.35;0.80;;;7.10;99.90;;;;;;5013731;28;20042;-66
2022/04/03 08:40:13;;;;;;;4.15;1.30;;;7.10;99.90;;;;;;5012391;28;20157;-65
2022/04/03 08:42:39;;;;;;;2.67;1.00;;;6.90;99.90;;;;;;4996375;28;20125;-65
2022/04/03 08:45:11;;;;;;;2.88;1.20;;;6.80;99.90;;;;;;4996473;28;20050;-67
2022/04/03 08:47:57;;;;;;;3.38;1.25;;;6.70;99.90;;;;;;5013366;28;20053;-66
2022/04/03 08:50:33;;;;;;;2.70;1.00;;;6.60;99.90;;;;;;4996079;28;20135;-68
2022/04/03 08:53:01;;;;;;;2.35;0.98;;;6.60;99.90;;;;;;5013777;28;20045;-66
2022/04/03 08:55:28;;;;;;;2.17;0.95;;;6.40;99.90;;;;;;5013728;28;20096;-66
2022/04/03 08:57:54;;;;;;;3.53;0.90;;;6.50;99.90;;;;;;4996111;28;20038;-67
2022/04/03 09:00:20;;;;;;;2.80;1.08;;;6.60;99.90;;;;;;5013559;28;20174;-67
2022/04/03 09:02:46;;;;;;;4.72;0.80;;;7.00;99.90;;;;;;5013459;28;20467;-66
2022/04/03 09:05:14;;;;;;;3.00;1.17;;;7.30;99.90;;;;;;4996375;28;20038;-66
2022/04/03 09:07:40;;;;;;;3.42;0.85;;;7.40;99.90;;;;;;5014362;28;20133;-66
2022/04/03 09:10:14;;;;;;;2.53;1.10;;;7.20;99.90;;;;;;5016868;28;20463;-66
2022/04/03 09:12:47;;;;;;;2.47;1.20;;;7.10;99.90;;;;;;5017457;28;20113;-66
2022/04/03 09:15:15;;;;;;;2.95;1.25;;;7.10;99.90;;;;;;5016777;28;20356;-66
2022/04/03 09:17:44;;;;;;;2.65;1.17;;;7.00;99.90;;;;;;4999224;28;20048;-66
2022/04/03 09:20:13;;;;;;;4.43;0.93;;;7.00;99.90;;;;;;5016902;28;20038;-66
2022/04/03 09:22:41;;;;;;;0.68;0.60;;;7.00;99.90;;;;;;5016469;28;20049;-68
2022/04/03 09:25:09;;;;;;;2.15;0.73;;;7.10;99.90;;;;;;4999241;28;20044;-67
2022/04/03 09:27:54;;;;;;;2.83;0.82;;;7.20;99.90;;;;;;4978013;28;20045;-66
2022/04/03 09:30:24;;;;;;;1.63;0.85;;;7.20;99.90;;;;;;5015685;28;20038;-68
2022/04/03 09:32:54;;;;;;;3.72;1.25;;;7.30;99.90;;;;;;5007569;28;20043;-65
2022/04/03 09:35:24;;;;;;;1.85;0.82;;;7.50;99.90;;;;;;5010697;28;20076;-65
2022/04/03 09:38:16;;;;;;;2.22;0.80;;;7.50;99.90;;;;;;5012575;28;20373;-65
2022/04/03 09:40:48;;;;;;;1.90;0.60;;;7.50;99.90;;;;;;5016494;28;20034;-65
2022/04/03 09:43:16;;;;;;;1.77;0.65;;;7.40;99.90;;;;;;5016463;28;20046;-67
2022/04/03 09:46:07;;;;;;;2.65;1.00;;;7.50;99.90;;;;;;5015986;28;20069;-66
2022/04/03 09:48:43;;;;;;;3.25;1.20;;;7.50;99.90;;;;;;5014979;28;20709;-65
2022/04/03 09:51:13;;;;;;;1.88;0.88;;;7.50;99.90;;;;;;5016020;28;20030;-67
2022/04/03 09:53:47;;;;;;;2.40;0.70;;;7.50;99.90;;;;;;5008282;28;20065;-66
2022/04/03 09:56:24;;;;;;;3.40;0.88;;;7.70;99.90;;;;;;4995078;28;20560;-65
2022/04/03 09:58:50;;;;;;;4.80;1.25;;;7.90;99.90;;;;;;4997551;28;20067;-67
2022/04/03 10:01:33;;;;;;;5.20;1.67;;;8.10;99.90;;;;;;4999628;28;20389;-67
2022/04/03 10:04:01;;;;;;;2.58;0.88;;;8.10;99.90;;;;;;5012207;28;20459;-67
2022/04/03 10:06:29;;;;;;;2.25;1.00;;;8.00;99.90;;;;;;5015404;28;20044;-67
2022/04/03 10:08:54;;;;;;;2.95;0.75;;;7.60;99.90;;;;;;5014899;28;20029;-67
2022/04/03 10:11:21;;;;;;;3.13;1.23;;;7.60;99.90;;;;;;4998135;28;20100;-66
2022/04/03 10:13:47;;;;;;;3.05;0.98;;;7.80;99.90;;;;;;5014673;28;20033;-67
2022/04/03 10:16:15;;;;;;;2.63;0.98;;;7.90;99.90;;;;;;5014864;28;20385;-67
2022/04/03 10:18:41;;;;;;;3.95;0.95;;;8.10;99.90;;;;;;5014370;28;20129;-66
2022/04/03 10:21:27;;;;;;;1.40;0.70;;;8.20;99.90;;;;;;4998979;28;20471;-67
2022/04/03 10:24:05;;;;;;;2.03;0.80;;;8.30;99.90;;;;;;5015554;28;20052;-67
2022/04/03 10:26:37;;;;;;;1.83;0.85;;;8.50;99.90;;;;;;5012895;28;20052;-66
2022/04/03 10:29:09;;;;;;;3.70;1.30;;;8.50;99.90;;;;;;4997271;28;20030;-66
2022/04/03 10:31:37;;;;;;;2.80;0.93;;;8.30;99.90;;;;;;4978419;28;20061;-67
2022/04/03 10:34:04;;;;;;;2.25;1.20;;;8.00;99.90;;;;;;5002212;28;20030;-67
2022/04/03 10:36:30;;;;;;;4.72;1.30;;;8.20;99.90;;;;;;5001666;28;20049;-67
2022/04/03 10:39:08;;;;;;;1.95;1.00;;;8.40;99.90;;;;;;5010505;28;20065;-68
2022/04/03 10:41:36;;;;;;;4.72;1.00;;;8.40;99.90;;;;;;4998178;28;20041;-68
2022/04/03 10:44:19;;;;;;;1.30;1.10;;;8.50;99.90;;;;;;5015261;28;20096;-65
2022/04/03 10:47:03;;;;;;;4.57;1.20;;;8.50;99.90;;;;;;5014844;28;20042;-65
2022/04/03 10:49:31;;;;;;;4.10;1.25;;;8.40;99.90;;;;;;5014409;28;20462;-64
2022/04/03 10:52:06;;;;;;;3.28;1.00;;;8.30;99.90;;;;;;4997617;28;20459;-64
2022/04/03 10:54:40;;;;;;;2.25;1.00;;;8.10;99.90;;;;;;4997498;28;20396;-65
2022/04/03 10:57:34;;;;;;;2.17;0.80;;;8.00;99.90;;;;;;4997674;28;20049;-64
2022/04/03 11:00:12;;;;;;;3.25;0.73;;;7.80;99.90;;;;;;5014266;28;20471;-65
2022/04/03 11:02:38;;;;;;;2.97;0.90;;;7.80;99.90;;;;;;5015084;28;20034;-68
2022/04/03 11:05:25;;;;;;;1.90;0.75;;;8.00;99.90;;;;;;4981280;28;20042;-63
2022/04/03 11:08:04;;;;;;;0.90;0.60;;;8.30;99.90;;;;;;4997352;28;20475;-65
2022/04/03 11:10:48;;;;;;;2.08;0.70;;;8.60;99.90;;;;;;5014802;28;20463;-70
2022/04/03 11:13:20;;;;;;;0.80;0.73;;;8.60;99.90;;;;;;4997476;28;20479;-66
2022/04/03 11:15:50;;;;;;;2.00;0.60;;;8.60;99.90;;;;;;5014176;28;20379;-66
2022/04/03 11:18:36;;;;;;;0.95;0.68;;;8.40;99.90;;;;;;5013774;28;20144;-68
2022/04/03 11:21:17;;;;;;;2.67;1.05;;;8.30;99.90;;;;;;4997235;28;20057;-63
2022/04/03 11:23:51;;;;;;;4.18;0.90;;;8.30;99.90;;;;;;5014365;28;20210;-64
2022/04/03 11:26:17;;;;;;;3.33;1.25;;;8.20;99.90;;;;;;5014277;28;20129;-62
2022/04/03 11:28:44;;;;;;;2.20;0.93;;;8.30;99.90;;;;;;5013449;28;20081;-66
2022/04/03 11:31:10;;;;;;;1.45;0.82;;;8.40;99.90;;;;;;4996512;28;20041;-68
2022/04/03 11:33:37;;;;;;;2.25;0.82;;;8.50;99.90;;;;;;5014123;28;20038;-67
2022/04/03 11:36:12;;;;;;;3.53;1.58;;;8.70;99.90;;;;;;4996991;28;20124;-66
2022/04/03 11:38:40;;;;;;;3.47;1.33;;;8.90;99.90;;;;;;5013378;28;20048;-66
2022/04/03 11:41:12;;;;;;;5.72;1.50;;;9.00;99.90;;;;;;5013972;28;20481;-66
2022/04/03 11:43:39;;;;;;;1.33;0.70;;;9.00;99.90;;;;;;5013187;28;20505;-66
2022/04/03 11:46:08;;;;;;;3.30;0.95;;;8.90;99.90;;;;;;5013924;28;20081;-65
2022/04/03 11:48:42;;;;;;;1.33;0.77;;;8.60;99.90;;;;;;5013063;28;20117;-66
2022/04/03 11:51:13;;;;;;;2.40;0.88;;;8.50;99.90;;;;;;5014084;28;20084;-66
2022/04/03 11:53:41;;;;;;;5.45;1.30;;;8.50;99.90;;;;;;5012756;28;20045;-65
2022/04/03 11:56:11;;;;;;;2.03;1.20;;;8.40;99.90;;;;;;5013998;28;20037;-66
2022/04/03 11:58:40;;;;;;;3.28;1.30;;;8.40;99.90;;;;;;4995789;28;20053;-66
2022/04/03 12:01:06;;;;;;;2.95;1.70;;;8.50;99.90;;;;;;4996371;28;20049;-65
2022/04/03 12:03:38;;;;;;;3.20;1.10;;;8.70;99.90;;;;;;5013963;28;20076;-66
2022/04/03 12:06:15;;;;;;;2.65;1.10;;;8.80;99.90;;;;;;5013629;28;20054;-65
2022/04/03 12:08:42;;;;;;;2.33;1.10;;;8.70;99.90;;;;;;5011901;28;20041;-65
2022/04/03 12:11:15;;;;;;;3.05;1.20;;;8.70;99.90;;;;;;5013760;28;20048;-66
2022/04/03 12:13:41;;;;;;;1.95;1.20;;;9.00;99.90;;;;;;4995849;28;20360;-65
2022/04/03 12:16:07;;;;;;;1.65;0.90;;;9.20;99.90;;;;;;5012164;28;20085;-68
2022/04/03 12:18:52;;;;;;;1.35;0.90;;;9.30;99.90;;;;;;4955137;28;20101;-67
2022/04/03 12:21:18;;;;;;;3.15;0.98;;;9.50;99.90;;;;;;4976119;28;20467;-67
2022/04/03 12:24:07;;;;;;;3.35;1.08;;;9.60;99.90;;;;;;4995136;28;20098;-67
2022/04/03 12:26:34;;;;;;;2.75;1.10;;;9.90;99.90;;;;;;4988173;28;20034;-68
2022/04/03 12:29:01;;;;;;;3.17;1.10;;;9.90;99.90;;;;;;5010673;28;20117;-67
2022/04/03 12:31:28;;;;;;;1.90;1.00;;;9.70;99.90;;;;;;4996597;28;20113;-63
2022/04/03 12:34:08;;;;;;;4.55;1.52;;;9.70;99.90;;;;;;4996546;28;20046;-64
2022/04/03 12:36:42;;;;;;;2.08;1.10;;;9.70;99.90;;;;;;5010813;28;20050;-62
2022/04/03 12:39:43;;;;;;;;;;;9.60;99.90;;;;;;5013718;28;20119;-63
2022/04/03 12:42:26;;;;;;;2.63;0.70;;;9.60;99.90;;;;;;4973332;28;19929;-61
2022/04/03 12:44:56;;;;;;;3.65;1.20;;;9.40;99.90;;;;;;5014176;28;20069;-60
2022/04/03 12:47:32;;;;;;;1.10;0.85;;;9.10;99.90;;;;;;5017761;28;20050;-62
2022/04/03 12:50:10;;;;;;;1.55;0.73;;;8.80;99.90;;;;;;5016910;28;20463;-64
2022/04/03 12:52:52;;;;;;;2.88;1.30;;;8.70;99.90;;;;;;5000218;28;20352;-64
2022/04/03 12:55:21;;;;;;;2.63;0.70;;;8.70;99.90;;;;;;5017619;28;20356;-64
2022/04/03 13:00:44;;;;;;;1.67;1.08;;;8.80;99.90;;;;;;4997821;28;20373;-65
2022/04/03 13:03:21;;;;;;;3.63;1.48;;;8.90;99.90;;;;;;4997659;28;20049;-62
2022/04/03 13:05:47;;;;;;;2.08;0.88;;;9.00;99.90;;;;;;4998050;28;20063;-61